createdAt,value
2023-05-13T00:03:41.019Z,5.11
2023-05-13T00:08:43.442Z,5.29
2023-05-13T00:13:46.275Z,5.28
2023-05-13T00:18:48.462Z,4.88
2023-05-13T00:23:51.117Z,4.82
2023-05-13T00:28:53.733Z,4.96
2023-05-13T00:33:56.438Z,4.50
2023-05-13T00:38:59.165Z,4.49
2023-05-13T00:44:01.858Z,4.52
2023-05-13T00:49:05.792Z,4.58
2023-05-13T00:54:08.375Z,4.28
2023-05-13T00:59:11.001Z,4.17
2023-05-13T01:04:45.097Z,4.36
2023-05-13T01:09:55.512Z,4.31
2023-05-13T01:15:15.348Z,4.17
2023-05-13T01:20:23.004Z,3.94
2023-05-13T01:25:26.259Z,3.93
2023-05-13T01:30:28.995Z,3.87
2023-05-13T01:35:32.566Z,3.88
2023-05-13T01:40:36.397Z,3.92
2023-05-13T01:45:42.803Z,3.87
2023-05-13T01:50:46.851Z,3.73
2023-05-13T01:55:49.726Z,3.42
2023-05-13T02:00:52.534Z,3.52
2023-05-13T02:05:54.628Z,3.45
2023-05-13T02:10:58.164Z,3.25
2023-05-13T02:16:01.104Z,3.39
2023-05-13T02:21:04.073Z,3.15
2023-05-13T02:26:06.721Z,3.03
2023-05-13T02:31:09.444Z,3.28
2023-05-13T02:36:12.342Z,3.32
2023-05-13T02:41:15.222Z,2.97
2023-05-13T02:46:18.106Z,2.90
2023-05-13T02:51:21.332Z,2.91
2023-05-13T02:56:24.252Z,3.06
2023-05-13T03:01:27.286Z,3.05
2023-05-13T03:06:29.647Z,2.97
2023-05-13T03:11:32.267Z,3.01
2023-05-13T03:16:34.903Z,2.87
2023-05-13T03:21:38.472Z,2.82
2023-05-13T03:26:44.803Z,3.02
2023-05-13T03:31:47.330Z,2.97
2023-05-13T03:36:49.992Z,3.15
2023-05-13T03:41:53.172Z,3.04
2023-05-13T03:46:56.003Z,3.28
2023-05-13T03:51:58.921Z,3.40
2023-05-13T03:57:01.669Z,3.53
2023-05-13T04:02:04.909Z,3.44
2023-05-13T04:07:07.660Z,4.00
2023-05-13T04:12:09.785Z,4.26
2023-05-13T04:17:12.531Z,4.55
2023-05-13T04:22:14.684Z,4.79
2023-05-13T04:27:17.352Z,4.94
2023-05-13T04:32:23.811Z,5.29
2023-05-13T04:37:30.537Z,5.90
2023-05-13T04:42:37.333Z,6.43
2023-05-13T04:47:40.449Z,6.92
2023-05-13T04:52:43.353Z,7.34
2023-05-13T04:57:46.417Z,8.10
2023-05-13T05:02:49.502Z,9.13
2023-05-13T05:07:52.188Z,10.00
2023-05-13T05:12:56.095Z,10.31
2023-05-13T05:18:00.190Z,11.26
2023-05-13T05:23:03.815Z,11.93
2023-05-13T05:28:08.006Z,12.69
2023-05-13T05:33:15.130Z,13.49
2023-05-13T05:38:18.926Z,14.41
2023-05-13T05:43:39.848Z,14.97
2023-05-13T05:48:44.069Z,15.52
2023-05-13T05:53:47.467Z,15.42
2023-05-13T05:58:52.098Z,16.09
2023-05-13T06:03:55.497Z,16.37
2023-05-13T06:08:58.824Z,17.38
2023-05-13T06:14:01.563Z,18.37
2023-05-13T06:19:04.318Z,20.34
2023-05-13T06:24:06.910Z,23.76
2023-05-13T06:29:09.880Z,24.87
2023-05-13T06:34:16.710Z,25.69
2023-05-13T06:39:20.463Z,25.40
2023-05-13T06:44:23.326Z,25.53
2023-05-13T06:49:30.109Z,25.13
2023-05-13T06:54:32.780Z,24.79
2023-05-13T06:59:36.269Z,22.73
2023-05-13T07:04:38.776Z,21.90
2023-05-13T07:09:40.824Z,21.21
2023-05-13T07:14:45.534Z,21.31
2023-05-13T07:19:48.091Z,21.07
2023-05-13T07:24:50.795Z,20.76
2023-05-13T07:29:53.394Z,21.32
2023-05-13T07:34:55.975Z,22.36
2023-05-13T07:39:58.709Z,22.61
2023-05-13T07:45:01.478Z,21.68
2023-05-13T07:50:04.310Z,20.96
2023-05-13T07:55:07.560Z,21.09
2023-05-13T08:00:10.340Z,20.96
2023-05-13T08:05:15.800Z,20.85
2023-05-13T08:10:18.529Z,22.48
2023-05-13T08:15:21.437Z,22.20
2023-05-13T08:20:30.103Z,22.44
2023-05-13T08:25:32.517Z,22.29
2023-05-13T08:30:35.289Z,22.46
2023-05-13T08:35:37.817Z,23.88
2023-05-13T08:40:40.678Z,24.11
2023-05-13T08:45:47.633Z,24.52
2023-05-13T08:50:50.913Z,23.87
2023-05-13T08:55:54.992Z,25.12
2023-05-13T09:00:57.270Z,25.91
2023-05-13T09:06:03.704Z,25.49
2023-05-13T09:11:06.461Z,25.34
2023-05-13T09:16:09.095Z,25.57
2023-05-13T09:21:26.259Z,24.64
2023-05-13T09:26:31.578Z,24.80
2023-05-13T09:31:34.859Z,25.13
2023-05-13T09:36:37.140Z,24.99
2023-05-13T09:41:39.895Z,25.19
2023-05-13T09:46:43.840Z,24.04
2023-05-13T09:51:46.854Z,23.82
2023-05-13T09:56:49.610Z,24.69
2023-05-13T10:01:54.009Z,24.28
2023-05-13T10:06:58.153Z,22.20
2023-05-13T10:12:03.990Z,23.80
2023-05-13T10:17:07.458Z,24.20
2023-05-13T10:22:11.150Z,24.12
2023-05-13T10:27:15.003Z,23.18
2023-05-13T10:32:17.647Z,22.73
2023-05-13T10:37:31.812Z,23.43
2023-05-13T10:42:55.944Z,23.91
2023-05-13T10:48:07.535Z,22.26
2023-05-13T10:53:20.358Z,24.17
2023-05-13T10:58:28.987Z,25.34
2023-05-13T11:03:31.730Z,25.59
2023-05-13T11:08:42.039Z,24.27
2023-05-13T11:13:44.723Z,23.23
2023-05-13T11:18:47.906Z,22.89
2023-05-13T11:23:58.237Z,24.63
2023-05-13T11:29:04.710Z,25.39
2023-05-13T11:34:06.975Z,26.18
2023-05-13T11:39:12.632Z,25.75
2023-05-13T11:44:17.560Z,25.33
2023-05-13T11:49:35.562Z,27.03
2023-05-13T11:54:58.949Z,27.68
2023-05-13T12:00:07.283Z,25.86
2023-05-13T12:05:11.777Z,24.24
2023-05-13T12:10:14.868Z,23.41
2023-05-13T12:15:19.122Z,22.49
2023-05-13T12:20:23.530Z,22.21
2023-05-13T12:25:47.031Z,22.51
2023-05-13T12:30:59.201Z,21.26
2023-05-13T12:36:25.878Z,21.38
2023-05-13T12:41:41.982Z,22.38
2023-05-13T12:46:54.810Z,23.44
2023-05-13T12:51:57.590Z,22.76
2023-05-13T12:57:00.279Z,23.06
2023-05-13T13:02:02.809Z,22.25
2023-05-13T13:07:09.002Z,22.88
2023-05-13T13:12:11.486Z,22.70
2023-05-13T13:17:13.560Z,21.69
2023-05-13T13:22:16.237Z,21.44
2023-05-13T13:27:19.243Z,22.09
2023-05-13T13:32:22.052Z,22.36
2023-05-13T13:37:24.796Z,22.14
2023-05-13T13:42:40.119Z,22.30
2023-05-13T13:47:45.888Z,22.01
2023-05-13T13:52:48.112Z,22.08
2023-05-13T13:57:51.194Z,21.96
2023-05-13T14:02:53.998Z,21.75
2023-05-13T14:07:56.757Z,21.75
2023-05-13T14:12:58.845Z,21.09
2023-05-13T14:18:01.500Z,20.70
2023-05-13T14:23:05.501Z,20.56
2023-05-13T14:28:08.365Z,20.43
2023-05-13T14:33:11.138Z,20.87
2023-05-13T14:38:13.824Z,20.91
2023-05-13T14:43:15.948Z,20.92
2023-05-13T14:48:19.578Z,20.49
2023-05-13T14:53:22.252Z,20.34
2023-05-13T14:58:24.971Z,20.34
2023-05-13T15:03:27.530Z,20.35
2023-05-13T15:08:30.201Z,20.48
2023-05-13T15:13:37.068Z,20.52
2023-05-13T15:18:39.638Z,20.21
2023-05-13T15:23:42.212Z,20.02
2023-05-13T15:28:44.816Z,19.96
2023-05-13T15:33:47.383Z,19.75
2023-05-13T15:38:50.466Z,19.81
2023-05-13T15:43:53.019Z,19.97
2023-05-13T15:48:55.724Z,20.10
2023-05-13T15:53:58.383Z,20.34
2023-05-13T15:59:00.557Z,20.23
2023-05-13T16:04:03.314Z,19.89
2023-05-13T16:09:05.967Z,19.44
2023-05-13T16:14:08.894Z,19.14
2023-05-13T16:19:11.593Z,18.89
2023-05-13T16:24:14.160Z,18.63
2023-05-13T16:29:16.855Z,18.43
2023-05-13T16:34:19.394Z,18.40
2023-05-13T16:39:22.108Z,18.09
2023-05-13T16:44:25.302Z,17.91
2023-05-13T16:49:27.954Z,17.64
2023-05-13T16:54:30.594Z,17.30
2023-05-13T16:59:36.544Z,16.77
2023-05-13T17:04:39.145Z,15.97
2023-05-13T17:09:41.304Z,15.27
2023-05-13T17:14:44.210Z,15.47
2023-05-13T17:19:46.723Z,14.90
2023-05-13T17:24:49.278Z,14.35
2023-05-13T17:29:52.025Z,13.84
2023-05-13T17:34:54.477Z,13.61
2023-05-13T17:40:00.872Z,13.18
2023-05-13T17:45:04.029Z,12.98
2023-05-13T17:50:06.658Z,12.72
2023-05-13T17:55:09.536Z,12.51
2023-05-13T18:00:14.987Z,12.22
2023-05-13T18:05:17.806Z,12.10
2023-05-13T18:10:21.098Z,12.02
2023-05-13T18:15:23.962Z,12.09
2023-05-13T18:20:26.712Z,11.91
2023-05-13T18:25:31.477Z,11.98
2023-05-13T18:30:34.018Z,11.72
2023-05-13T18:35:38.571Z,11.83
2023-05-13T18:40:42.247Z,11.57
2023-05-13T18:45:44.839Z,11.34
2023-05-13T18:50:47.486Z,11.48
2023-05-13T18:55:50.253Z,11.56
2023-05-13T19:00:53.224Z,11.47
2023-05-13T19:05:56.142Z,11.06
2023-05-13T19:10:58.892Z,10.85
2023-05-13T19:16:01.581Z,10.70
2023-05-13T19:21:04.431Z,10.37
2023-05-13T19:26:07.012Z,10.16
2023-05-13T19:31:10.978Z,10.11
2023-05-13T19:36:13.772Z,10.35
2023-05-13T19:41:16.500Z,10.20
2023-05-13T19:46:19.245Z,10.14
2023-05-13T19:51:22.018Z,10.34
2023-05-13T19:56:24.864Z,10.24
2023-05-13T20:01:27.534Z,10.15
2023-05-13T20:06:30.243Z,10.02
2023-05-13T20:11:32.383Z,10.10
2023-05-13T20:16:34.984Z,9.87
2023-05-13T20:21:37.578Z,9.88
2023-05-13T20:26:40.339Z,9.91
2023-05-13T20:31:43.669Z,9.68
2023-05-13T20:36:45.950Z,9.61
2023-05-13T20:41:48.654Z,9.55
2023-05-13T20:46:51.680Z,9.48
2023-05-13T20:51:54.435Z,9.30
2023-05-13T20:56:57.164Z,9.18
2023-05-13T21:01:59.392Z,9.08
2023-05-13T21:07:02.114Z,8.90
2023-05-13T21:12:05.183Z,8.86
2023-05-13T21:17:07.953Z,8.90
2023-05-13T21:22:10.317Z,8.88
2023-05-13T21:27:13.338Z,8.77
2023-05-13T21:32:18.719Z,8.63
2023-05-13T21:37:21.284Z,8.73
2023-05-13T21:42:23.391Z,8.61
2023-05-13T21:47:25.884Z,8.57
2023-05-13T21:52:28.424Z,8.55
2023-05-13T21:57:31.012Z,8.36
2023-05-13T22:02:33.285Z,8.02
2023-05-13T22:07:36.419Z,8.11
2023-05-13T22:12:38.932Z,8.27
2023-05-13T22:17:41.827Z,8.33
2023-05-13T22:22:44.117Z,8.16
2023-05-13T22:27:49.023Z,8.30
2023-05-13T22:32:52.399Z,8.01
2023-05-13T22:37:55.210Z,8.14
2023-05-13T22:42:57.764Z,8.00
2023-05-13T22:47:59.907Z,7.96
2023-05-13T22:53:03.112Z,7.95
2023-05-13T22:58:05.931Z,7.68
2023-05-13T23:03:08.862Z,7.55
2023-05-13T23:08:11.474Z,7.64
2023-05-13T23:13:13.970Z,7.50
2023-05-13T23:18:16.682Z,7.33
2023-05-13T23:23:19.130Z,7.52
2023-05-13T23:28:40.927Z,7.52
2023-05-13T23:33:43.138Z,7.19
2023-05-13T23:38:46.319Z,7.34
2023-05-13T23:43:48.911Z,7.36
2023-05-13T23:48:51.054Z,7.48
2023-05-13T23:53:55.633Z,7.67
2023-05-13T23:58:58.395Z,7.52
